sensor_id;sensor_type;location;lat;lon;timestamp;P1;durP1;ratioP1;P2;durP2;ratioP2
4106;SDS011;21906;50.812;7.132;2023-02-23T00:02:32;37.70;;;26.93;;
4106;SDS011;21906;50.812;7.132;2023-02-23T00:05:02;37.13;;;25.70;;
4106;SDS011;21906;50.812;7.132;2023-02-23T00:07:41;36.63;;;26.33;;
4106;SDS011;21906;50.812;7.132;2023-02-23T00:10:14;35.53;;;25.67;;
4106;SDS011;21906;50.812;7.132;2023-02-23T00:13:11;32.10;;;24.60;;
4106;SDS011;21906;50.812;7.132;2023-02-23T00:15:58;35.30;;;25.20;;
4106;SDS011;21906;50.812;7.132;2023-02-23T00:18:59;35.83;;;24.83;;
4106;SDS011;21906;50.812;7.132;2023-02-23T00:21:32;36.73;;;24.60;;
4106;SDS011;21906;50.812;7.132;2023-02-23T00:24:10;37.30;;;26.23;;
4106;SDS011;21906;50.812;7.132;2023-02-23T00:26:53;32.20;;;24.20;;
4106;SDS011;21906;50.812;7.132;2023-02-23T00:29:22;33.40;;;24.00;;
4106;SDS011;21906;50.812;7.132;2023-02-23T00:32:04;35.27;;;23.80;;
4106;SDS011;21906;50.812;7.132;2023-02-23T00:34:46;33.63;;;23.60;;
4106;SDS011;21906;50.812;7.132;2023-02-23T00:37:17;30.00;;;22.73;;
4106;SDS011;21906;50.812;7.132;2023-02-23T00:39:56;36.13;;;24.43;;
4106;SDS011;21906;50.812;7.132;2023-02-23T00:42:32;33.93;;;23.37;;
4106;SDS011;21906;50.812;7.132;2023-02-23T00:45:13;35.17;;;24.80;;
4106;SDS011;21906;50.812;7.132;2023-02-23T00:47:49;33.90;;;24.17;;
4106;SDS011;21906;50.812;7.132;2023-02-23T00:50:21;30.47;;;23.27;;
4106;SDS011;21906;50.812;7.132;2023-02-23T00:52:56;31.43;;;24.50;;
4106;SDS011;21906;50.812;7.132;2023-02-23T00:55:46;35.93;;;24.97;;
4106;SDS011;21906;50.812;7.132;2023-02-23T00:58:26;32.60;;;23.20;;
4106;SDS011;21906;50.812;7.132;2023-02-23T01:01:04;34.33;;;24.40;;
4106;SDS011;21906;50.812;7.132;2023-02-23T01:04:03;32.33;;;22.60;;
4106;SDS011;21906;50.812;7.132;2023-02-23T01:06:45;32.90;;;24.47;;
4106;SDS011;21906;50.812;7.132;2023-02-23T01:09:21;32.47;;;24.80;;
4106;SDS011;21906;50.812;7.132;2023-02-23T01:12:11;35.13;;;24.90;;
4106;SDS011;21906;50.812;7.132;2023-02-23T01:14:43;36.77;;;26.20;;
4106;SDS011;21906;50.812;7.132;2023-02-23T01:17:13;37.20;;;25.33;;
4106;SDS011;21906;50.812;7.132;2023-02-23T01:19:40;34.40;;;25.60;;
4106;SDS011;21906;50.812;7.132;2023-02-23T01:22:49;34.40;;;25.43;;
4106;SDS011;21906;50.812;7.132;2023-02-23T01:25:16;32.63;;;24.13;;
4106;SDS011;21906;50.812;7.132;2023-02-23T01:27:54;30.30;;;22.40;;
4106;SDS011;21906;50.812;7.132;2023-02-23T01:30:23;32.67;;;23.13;;
4106;SDS011;21906;50.812;7.132;2023-02-23T01:32:55;31.60;;;22.00;;
4106;SDS011;21906;50.812;7.132;2023-02-23T01:35:25;30.90;;;24.40;;
4106;SDS011;21906;50.812;7.132;2023-02-23T01:37:59;34.10;;;24.53;;
4106;SDS011;21906;50.812;7.132;2023-02-23T01:40:25;36.20;;;23.70;;
4106;SDS011;21906;50.812;7.132;2023-02-23T01:42:58;29.27;;;22.43;;
4106;SDS011;21906;50.812;7.132;2023-02-23T01:45:53;32.53;;;23.10;;
4106;SDS011;21906;50.812;7.132;2023-02-23T01:48:49;28.87;;;21.43;;
4106;SDS011;21906;50.812;7.132;2023-02-23T01:51:20;31.57;;;22.43;;
4106;SDS011;21906;50.812;7.132;2023-02-23T01:54:09;28.40;;;21.07;;
4106;SDS011;21906;50.812;7.132;2023-02-23T01:56:50;28.50;;;22.37;;
4106;SDS011;21906;50.812;7.132;2023-02-23T01:59:29;28.03;;;21.10;;
4106;SDS011;21906;50.812;7.132;2023-02-23T02:02:09;30.30;;;20.20;;
4106;SDS011;21906;50.812;7.132;2023-02-23T02:04:41;27.00;;;21.20;;
4106;SDS011;21906;50.812;7.132;2023-02-23T02:07:23;29.00;;;22.63;;
4106;SDS011;21906;50.812;7.132;2023-02-23T02:09:52;29.70;;;21.60;;
4106;SDS011;21906;50.812;7.132;2023-02-23T02:12:45;30.50;;;20.23;;
4106;SDS011;21906;50.812;7.132;2023-02-23T02:15:29;27.53;;;20.80;;
4106;SDS011;21906;50.812;7.132;2023-02-23T02:26:33;30.37;;;20.70;;
4106;SDS011;21906;50.812;7.132;2023-02-23T02:29:37;33.60;;;22.13;;
4106;SDS011;21906;50.812;7.132;2023-02-23T02:32:34;29.30;;;21.40;;
4106;SDS011;21906;50.812;7.132;2023-02-23T02:35:18;26.57;;;20.60;;
4106;SDS011;21906;50.812;7.132;2023-02-23T02:38:47;31.00;;;21.03;;
4106;SDS011;21906;50.812;7.132;2023-02-23T02:44:26;29.47;;;21.20;;
4106;SDS011;21906;50.812;7.132;2023-02-23T02:47:11;28.33;;;20.37;;
4106;SDS011;21906;50.812;7.132;2023-02-23T02:53:08;25.20;;;19.53;;
4106;SDS011;21906;50.812;7.132;2023-02-23T02:56:00;24.93;;;20.57;;
4106;SDS011;21906;50.812;7.132;2023-02-23T02:58:39;25.33;;;20.40;;
4106;SDS011;21906;50.812;7.132;2023-02-23T03:01:23;28.93;;;22.67;;
4106;SDS011;21906;50.812;7.132;2023-02-23T03:04:31;31.40;;;22.37;;
4106;SDS011;21906;50.812;7.132;2023-02-23T03:16:44;42.70;;;28.80;;
4106;SDS011;21906;50.812;7.132;2023-02-23T03:32:28;43.80;;;31.33;;
4106;SDS011;21906;50.812;7.132;2023-02-23T03:35:32;42.17;;;30.10;;
4106;SDS011;21906;50.812;7.132;2023-02-23T03:38:19;39.23;;;27.30;;
4106;SDS011;21906;50.812;7.132;2023-02-23T03:41:12;36.93;;;27.33;;
4106;SDS011;21906;50.812;7.132;2023-02-23T03:44:08;39.20;;;28.10;;
4106;SDS011;21906;50.812;7.132;2023-02-23T03:47:00;39.83;;;29.83;;
4106;SDS011;21906;50.812;7.132;2023-02-23T03:49:49;41.97;;;29.73;;
4106;SDS011;21906;50.812;7.132;2023-02-23T03:52:39;42.67;;;30.03;;
4106;SDS011;21906;50.812;7.132;2023-02-23T03:55:33;42.27;;;29.40;;
4106;SDS011;21906;50.812;7.132;2023-02-23T03:58:27;42.63;;;28.90;;
4106;SDS011;21906;50.812;7.132;2023-02-23T04:01:18;42.00;;;28.57;;
4106;SDS011;21906;50.812;7.132;2023-02-23T04:04:08;41.90;;;29.27;;
4106;SDS011;21906;50.812;7.132;2023-02-23T04:06:59;44.37;;;31.03;;
4106;SDS011;21906;50.812;7.132;2023-02-23T04:09:48;44.60;;;31.10;;
4106;SDS011;21906;50.812;7.132;2023-02-23T04:12:56;44.57;;;31.53;;
4106;SDS011;21906;50.812;7.132;2023-02-23T04:18:27;47.50;;;33.27;;
4106;SDS011;21906;50.812;7.132;2023-02-23T04:20:56;50.30;;;33.03;;
4106;SDS011;21906;50.812;7.132;2023-02-23T04:23:35;57.07;;;36.13;;
4106;SDS011;21906;50.812;7.132;2023-02-23T04:26:04;51.00;;;34.10;;
4106;SDS011;21906;50.812;7.132;2023-02-23T04:28:39;52.43;;;35.33;;
4106;SDS011;21906;50.812;7.132;2023-02-23T04:31:07;55.60;;;37.00;;
4106;SDS011;21906;50.812;7.132;2023-02-23T04:33:36;55.87;;;36.07;;
4106;SDS011;21906;50.812;7.132;2023-02-23T04:36:09;53.77;;;35.23;;
4106;SDS011;21906;50.812;7.132;2023-02-23T04:38:35;51.33;;;35.37;;
4106;SDS011;21906;50.812;7.132;2023-02-23T04:41:07;54.83;;;36.23;;
4106;SDS011;21906;50.812;7.132;2023-02-23T04:43:33;53.37;;;34.33;;
4106;SDS011;21906;50.812;7.132;2023-02-23T04:46:12;54.47;;;35.10;;
4106;SDS011;21906;50.812;7.132;2023-02-23T04:48:42;57.60;;;38.33;;
4106;SDS011;21906;50.812;7.132;2023-02-23T04:51:12;60.00;;;38.10;;
4106;SDS011;21906;50.812;7.132;2023-02-23T04:53:41;59.00;;;38.23;;
4106;SDS011;21906;50.812;7.132;2023-02-23T04:56:23;69.07;;;40.73;;
4106;SDS011;21906;50.812;7.132;2023-02-23T04:58:50;60.97;;;37.80;;
4106;SDS011;21906;50.812;7.132;2023-02-23T05:01:23;61.33;;;38.23;;
4106;SDS011;21906;50.812;7.132;2023-02-23T05:03:50;59.80;;;37.80;;
4106;SDS011;21906;50.812;7.132;2023-02-23T05:06:19;61.27;;;37.67;;
4106;SDS011;21906;50.812;7.132;2023-02-23T05:08:46;59.20;;;38.37;;
4106;SDS011;21906;50.812;7.132;2023-02-23T05:11:17;61.40;;;39.03;;
4106;SDS011;21906;50.812;7.132;2023-02-23T05:13:52;55.43;;;35.43;;
4106;SDS011;21906;50.812;7.132;2023-02-23T05:16:22;63.17;;;39.07;;
4106;SDS011;21906;50.812;7.132;2023-02-23T05:18:53;63.53;;;39.73;;
4106;SDS011;21906;50.812;7.132;2023-02-23T05:21:26;58.37;;;38.10;;
4106;SDS011;21906;50.812;7.132;2023-02-23T05:24:17;63.87;;;38.10;;
4106;SDS011;21906;50.812;7.132;2023-02-23T05:26:57;65.87;;;41.43;;
4106;SDS011;21906;50.812;7.132;2023-02-23T05:29:29;70.67;;;42.10;;
4106;SDS011;21906;50.812;7.132;2023-02-23T05:31:55;64.17;;;40.50;;
4106;SDS011;21906;50.812;7.132;2023-02-23T05:34:24;70.10;;;42.07;;
4106;SDS011;21906;50.812;7.132;2023-02-23T05:36:51;62.27;;;39.03;;
4106;SDS011;21906;50.812;7.132;2023-02-23T05:39:35;63.50;;;39.63;;
4106;SDS011;21906;50.812;7.132;2023-02-23T05:42:10;70.37;;;41.53;;
4106;SDS011;21906;50.812;7.132;2023-02-23T05:44:36;62.90;;;40.50;;
4106;SDS011;21906;50.812;7.132;2023-02-23T05:47:22;66.93;;;40.87;;
4106;SDS011;21906;50.812;7.132;2023-02-23T05:49:51;65.20;;;40.60;;
4106;SDS011;21906;50.812;7.132;2023-02-23T05:52:29;63.20;;;40.77;;
4106;SDS011;21906;50.812;7.132;2023-02-23T05:55:01;66.67;;;41.13;;
4106;SDS011;21906;50.812;7.132;2023-02-23T05:57:28;62.80;;;39.43;;
4106;SDS011;21906;50.812;7.132;2023-02-23T06:00:04;61.77;;;38.83;;
4106;SDS011;21906;50.812;7.132;2023-02-23T06:02:44;66.17;;;39.73;;
4106;SDS011;21906;50.812;7.132;2023-02-23T06:05:16;57.83;;;38.07;;
4106;SDS011;21906;50.812;7.132;2023-02-23T06:07:43;66.03;;;41.80;;
4106;SDS011;21906;50.812;7.132;2023-02-23T06:10:10;60.63;;;38.63;;
4106;SDS011;21906;50.812;7.132;2023-02-23T06:12:39;62.93;;;39.47;;
4106;SDS011;21906;50.812;7.132;2023-02-23T06:17:45;60.10;;;37.97;;
4106;SDS011;21906;50.812;7.132;2023-02-23T06:20:12;61.43;;;37.90;;
4106;SDS011;21906;50.812;7.132;2023-02-23T06:22:38;56.03;;;37.83;;
4106;SDS011;21906;50.812;7.132;2023-02-23T06:25:08;58.07;;;38.30;;
4106;SDS011;21906;50.812;7.132;2023-02-23T06:27:46;58.67;;;37.83;;
4106;SDS011;21906;50.812;7.132;2023-02-23T06:30:18;57.63;;;36.93;;
4106;SDS011;21906;50.812;7.132;2023-02-23T06:32:49;53.83;;;36.00;;
4106;SDS011;21906;50.812;7.132;2023-02-23T06:35:24;51.60;;;35.77;;
4106;SDS011;21906;50.812;7.132;2023-02-23T06:37:55;54.70;;;37.37;;
4106;SDS011;21906;50.812;7.132;2023-02-23T06:40:22;53.30;;;36.40;;
4106;SDS011;21906;50.812;7.132;2023-02-23T06:42:54;54.10;;;35.47;;
4106;SDS011;21906;50.812;7.132;2023-02-23T06:45:24;51.13;;;35.37;;
4106;SDS011;21906;50.812;7.132;2023-02-23T06:47:56;58.87;;;37.13;;
4106;SDS011;21906;50.812;7.132;2023-02-23T06:50:26;55.00;;;36.73;;
4106;SDS011;21906;50.812;7.132;2023-02-23T06:52:56;58.17;;;37.33;;
4106;SDS011;21906;50.812;7.132;2023-02-23T06:55:25;54.47;;;35.63;;
4106;SDS011;21906;50.812;7.132;2023-02-23T06:57:59;52.63;;;35.23;;
4106;SDS011;21906;50.812;7.132;2023-02-23T07:00:35;53.90;;;35.60;;
4106;SDS011;21906;50.812;7.132;2023-02-23T07:03:10;54.07;;;36.37;;
4106;SDS011;21906;50.812;7.132;2023-02-23T07:05:36;50.60;;;34.03;;
4106;SDS011;21906;50.812;7.132;2023-02-23T07:08:17;55.93;;;35.60;;
4106;SDS011;21906;50.812;7.132;2023-02-23T07:10:49;52.30;;;33.43;;
4106;SDS011;21906;50.812;7.132;2023-02-23T07:13:27;55.23;;;35.40;;
4106;SDS011;21906;50.812;7.132;2023-02-23T07:15:57;55.70;;;34.80;;
4106;SDS011;21906;50.812;7.132;2023-02-23T07:18:39;56.17;;;35.43;;
4106;SDS011;21906;50.812;7.132;2023-02-23T07:21:08;55.07;;;34.27;;
4106;SDS011;21906;50.812;7.132;2023-02-23T07:23:38;52.27;;;35.17;;
4106;SDS011;21906;50.812;7.132;2023-02-23T07:26:05;55.80;;;35.70;;
4106;SDS011;21906;50.812;7.132;2023-02-23T07:31:19;57.53;;;35.60;;
4106;SDS011;21906;50.812;7.132;2023-02-23T07:34:02;56.57;;;36.53;;
4106;SDS011;21906;50.812;7.132;2023-02-23T07:36:32;55.37;;;35.43;;
4106;SDS011;21906;50.812;7.132;2023-02-23T07:39:03;56.53;;;36.40;;
4106;SDS011;21906;50.812;7.132;2023-02-23T07:41:38;59.63;;;36.47;;
4106;SDS011;21906;50.812;7.132;2023-02-23T07:44:17;51.77;;;34.10;;
4106;SDS011;21906;50.812;7.132;2023-02-23T07:46:44;53.47;;;34.47;;
4106;SDS011;21906;50.812;7.132;2023-02-23T07:49:30;51.90;;;33.60;;
4106;SDS011;21906;50.812;7.132;2023-02-23T07:52:00;59.37;;;35.60;;
4106;SDS011;21906;50.812;7.132;2023-02-23T07:54:38;63.17;;;37.87;;
4106;SDS011;21906;50.812;7.132;2023-02-23T07:57:11;52.70;;;33.33;;
4106;SDS011;21906;50.812;7.132;2023-02-23T07:59:41;57.80;;;36.93;;
4106;SDS011;21906;50.812;7.132;2023-02-23T08:02:33;56.50;;;36.07;;
4106;SDS011;21906;50.812;7.132;2023-02-23T08:05:03;52.07;;;34.63;;
4106;SDS011;21906;50.812;7.132;2023-02-23T08:07:30;60.90;;;36.83;;
4106;SDS011;21906;50.812;7.132;2023-02-23T08:10:02;54.40;;;35.20;;
4106;SDS011;21906;50.812;7.132;2023-02-23T08:12:32;51.60;;;34.13;;
4106;SDS011;21906;50.812;7.132;2023-02-23T08:15:05;54.60;;;34.60;;
4106;SDS011;21906;50.812;7.132;2023-02-23T08:17:37;54.87;;;35.50;;
4106;SDS011;21906;50.812;7.132;2023-02-23T08:20:06;50.47;;;32.67;;
4106;SDS011;21906;50.812;7.132;2023-02-23T08:22:38;52.60;;;34.30;;
4106;SDS011;21906;50.812;7.132;2023-02-23T08:25:09;52.03;;;33.90;;
4106;SDS011;21906;50.812;7.132;2023-02-23T08:27:40;53.80;;;34.67;;
4106;SDS011;21906;50.812;7.132;2023-02-23T08:30:10;53.80;;;34.67;;
4106;SDS011;21906;50.812;7.132;2023-02-23T08:32:44;55.43;;;33.47;;
4106;SDS011;21906;50.812;7.132;2023-02-23T08:35:13;46.90;;;31.87;;
4106;SDS011;21906;50.812;7.132;2023-02-23T08:37:40;51.33;;;32.80;;
4106;SDS011;21906;50.812;7.132;2023-02-23T08:40:12;42.83;;;30.40;;
4106;SDS011;21906;50.812;7.132;2023-02-23T08:42:45;49.90;;;31.63;;
4106;SDS011;21906;50.812;7.132;2023-02-23T08:45:16;47.10;;;31.30;;
4106;SDS011;21906;50.812;7.132;2023-02-23T08:47:58;49.17;;;30.77;;
4106;SDS011;21906;50.812;7.132;2023-02-23T08:50:31;47.93;;;31.60;;
4106;SDS011;21906;50.812;7.132;2023-02-23T08:53:05;47.73;;;31.23;;
4106;SDS011;21906;50.812;7.132;2023-02-23T08:55:37;46.97;;;29.90;;
4106;SDS011;21906;50.812;7.132;2023-02-23T08:58:05;50.70;;;32.40;;
4106;SDS011;21906;50.812;7.132;2023-02-23T09:00:37;48.20;;;30.13;;
4106;SDS011;21906;50.812;7.132;2023-02-23T09:03:12;48.40;;;30.03;;
4106;SDS011;21906;50.812;7.132;2023-02-23T09:05:42;48.37;;;30.30;;
4106;SDS011;21906;50.812;7.132;2023-02-23T09:08:22;52.63;;;31.20;;
4106;SDS011;21906;50.812;7.132;2023-02-23T09:11:02;44.60;;;29.63;;
4106;SDS011;21906;50.812;7.132;2023-02-23T09:13:31;45.40;;;29.93;;
4106;SDS011;21906;50.812;7.132;2023-02-23T09:16:09;47.67;;;30.07;;
4106;SDS011;21906;50.812;7.132;2023-02-23T09:18:36;45.63;;;29.10;;
4106;SDS011;21906;50.812;7.132;2023-02-23T09:21:06;42.23;;;28.63;;
4106;SDS011;21906;50.812;7.132;2023-02-23T09:24:00;48.37;;;28.23;;
4106;SDS011;21906;50.812;7.132;2023-02-23T09:26:32;51.60;;;30.77;;
4106;SDS011;21906;50.812;7.132;2023-02-23T09:29:04;47.37;;;30.30;;
4106;SDS011;21906;50.812;7.132;2023-02-23T09:31:31;52.17;;;30.80;;
4106;SDS011;21906;50.812;7.132;2023-02-23T09:34:02;44.60;;;28.47;;
4106;SDS011;21906;50.812;7.132;2023-02-23T09:36:33;47.17;;;28.13;;
4106;SDS011;21906;50.812;7.132;2023-02-23T09:39:03;42.27;;;26.70;;
4106;SDS011;21906;50.812;7.132;2023-02-23T09:44:23;45.60;;;27.60;;
4106;SDS011;21906;50.812;7.132;2023-02-23T09:47:17;49.20;;;29.73;;
4106;SDS011;21906;50.812;7.132;2023-02-23T09:50:11;45.23;;;27.90;;
4106;SDS011;21906;50.812;7.132;2023-02-23T09:52:48;44.10;;;27.20;;
4106;SDS011;21906;50.812;7.132;2023-02-23T09:55:22;48.40;;;28.30;;
4106;SDS011;21906;50.812;7.132;2023-02-23T09:57:49;42.10;;;27.57;;
4106;SDS011;21906;50.812;7.132;2023-02-23T10:06:05;40.87;;;26.97;;
4106;SDS011;21906;50.812;7.132;2023-02-23T10:11:21;46.07;;;28.00;;
4106;SDS011;21906;50.812;7.132;2023-02-23T10:20:23;40.83;;;26.90;;
4106;SDS011;21906;50.812;7.132;2023-02-23T10:23:16;45.47;;;27.60;;
4106;SDS011;21906;50.812;7.132;2023-02-23T10:26:01;44.43;;;29.03;;
4106;SDS011;21906;50.812;7.132;2023-02-23T10:28:43;42.80;;;27.20;;
4106;SDS011;21906;50.812;7.132;2023-02-23T10:31:25;43.13;;;28.07;;
4106;SDS011;21906;50.812;7.132;2023-02-23T10:34:03;41.47;;;27.30;;
4106;SDS011;21906;50.812;7.132;2023-02-23T10:37:01;41.87;;;25.90;;
4106;SDS011;21906;50.812;7.132;2023-02-23T10:39:38;41.47;;;26.67;;
4106;SDS011;21906;50.812;7.132;2023-02-23T10:42:45;40.43;;;26.50;;
4106;SDS011;21906;50.812;7.132;2023-02-23T10:45:17;39.70;;;26.53;;
4106;SDS011;21906;50.812;7.132;2023-02-23T10:48:00;40.17;;;25.90;;
4106;SDS011;21906;50.812;7.132;2023-02-23T10:50:38;38.43;;;24.87;;
4106;SDS011;21906;50.812;7.132;2023-02-23T10:53:18;40.30;;;25.40;;
4106;SDS011;21906;50.812;7.132;2023-02-23T10:56:14;42.30;;;27.30;;
4106;SDS011;21906;50.812;7.132;2023-02-23T10:58:48;47.70;;;28.10;;
4106;SDS011;21906;50.812;7.132;2023-02-23T11:04:33;38.50;;;25.40;;
4106;SDS011;21906;50.812;7.132;2023-02-23T11:07:15;39.50;;;25.67;;
4106;SDS011;21906;50.812;7.132;2023-02-23T11:09:50;42.03;;;25.00;;
4106;SDS011;21906;50.812;7.132;2023-02-23T11:14:53;38.70;;;25.33;;
4106;SDS011;21906;50.812;7.132;2023-02-23T11:17:26;39.80;;;24.87;;
4106;SDS011;21906;50.812;7.132;2023-02-23T11:20:05;41.20;;;25.60;;
4106;SDS011;21906;50.812;7.132;2023-02-23T11:22:49;41.03;;;25.07;;
4106;SDS011;21906;50.812;7.132;2023-02-23T11:25:29;39.63;;;24.33;;
4106;SDS011;21906;50.812;7.132;2023-02-23T11:28:15;40.73;;;24.60;;
4106;SDS011;21906;50.812;7.132;2023-02-23T11:30:56;39.50;;;24.87;;
4106;SDS011;21906;50.812;7.132;2023-02-23T11:33:30;41.60;;;26.13;;
4106;SDS011;21906;50.812;7.132;2023-02-23T11:36:26;40.60;;;25.30;;
4106;SDS011;21906;50.812;7.132;2023-02-23T11:42:03;44.87;;;26.47;;
4106;SDS011;21906;50.812;7.132;2023-02-23T11:47:30;42.97;;;24.70;;
4106;SDS011;21906;50.812;7.132;2023-02-23T11:50:02;43.03;;;24.43;;
4106;SDS011;21906;50.812;7.132;2023-02-23T11:52:31;39.43;;;23.07;;
4106;SDS011;21906;50.812;7.132;2023-02-23T11:55:10;37.97;;;24.20;;
4106;SDS011;21906;50.812;7.132;2023-02-23T11:57:43;34.63;;;23.33;;
4106;SDS011;21906;50.812;7.132;2023-02-23T12:00:20;36.87;;;23.67;;
4106;SDS011;21906;50.812;7.132;2023-02-23T12:02:58;39.90;;;24.83;;
4106;SDS011;21906;50.812;7.132;2023-02-23T12:05:31;37.77;;;23.80;;
4106;SDS011;21906;50.812;7.132;2023-02-23T12:10:50;39.00;;;23.90;;
4106;SDS011;21906;50.812;7.132;2023-02-23T12:13:33;33.77;;;23.00;;
4106;SDS011;21906;50.812;7.132;2023-02-23T12:21:49;35.80;;;24.23;;
4106;SDS011;21906;50.812;7.132;2023-02-23T12:27:08;30.53;;;21.80;;
4106;SDS011;21906;50.812;7.132;2023-02-23T12:34:58;36.33;;;24.03;;
4106;SDS011;21906;50.812;7.132;2023-02-23T12:37:37;35.50;;;23.03;;
4106;SDS011;21906;50.812;7.132;2023-02-23T12:40:14;34.17;;;22.10;;
4106;SDS011;21906;50.812;7.132;2023-02-23T12:45:21;39.17;;;25.90;;
4106;SDS011;21906;50.812;7.132;2023-02-23T12:48:59;37.47;;;24.07;;
4106;SDS011;21906;50.812;7.132;2023-02-23T12:51:34;42.07;;;24.90;;
4106;SDS011;21906;50.812;7.132;2023-02-23T12:54:15;42.60;;;26.10;;
4106;SDS011;21906;50.812;7.132;2023-02-23T12:56:49;45.03;;;25.67;;
4106;SDS011;21906;50.812;7.132;2023-02-23T12:59:40;45.90;;;26.30;;
4106;SDS011;21906;50.812;7.132;2023-02-23T13:16:59;49.87;;;26.53;;
4106;SDS011;21906;50.812;7.132;2023-02-23T13:25:42;46.60;;;24.13;;
4106;SDS011;21906;50.812;7.132;2023-02-23T13:28:12;45.53;;;23.10;;
4106;SDS011;21906;50.812;7.132;2023-02-23T13:30:47;46.07;;;23.20;;
4106;SDS011;21906;50.812;7.132;2023-02-23T13:33:20;41.37;;;21.43;;
4106;SDS011;21906;50.812;7.132;2023-02-23T13:35:55;40.60;;;22.20;;
4106;SDS011;21906;50.812;7.132;2023-02-23T13:38:29;42.77;;;21.63;;
4106;SDS011;21906;50.812;7.132;2023-02-23T13:41:35;42.63;;;20.93;;
4106;SDS011;21906;50.812;7.132;2023-02-23T13:44:31;36.90;;;18.70;;
4106;SDS011;21906;50.812;7.132;2023-02-23T13:53:34;33.70;;;17.80;;
4106;SDS011;21906;50.812;7.132;2023-02-23T13:59:21;36.67;;;19.70;;
4106;SDS011;21906;50.812;7.132;2023-02-23T14:01:53;41.40;;;21.50;;
4106;SDS011;21906;50.812;7.132;2023-02-23T14:04:25;40.40;;;20.90;;
4106;SDS011;21906;50.812;7.132;2023-02-23T14:07:13;42.90;;;21.00;;
4106;SDS011;21906;50.812;7.132;2023-02-23T14:09:57;39.47;;;20.53;;
4106;SDS011;21906;50.812;7.132;2023-02-23T14:13:23;41.00;;;20.77;;
4106;SDS011;21906;50.812;7.132;2023-02-23T14:16:13;42.83;;;20.63;;
4106;SDS011;21906;50.812;7.132;2023-02-23T14:19:10;43.77;;;21.17;;
4106;SDS011;21906;50.812;7.132;2023-02-23T14:21:58;38.57;;;20.10;;
4106;SDS011;21906;50.812;7.132;2023-02-23T14:24:31;36.53;;;20.00;;
4106;SDS011;21906;50.812;7.132;2023-02-23T14:30:19;40.93;;;21.10;;
4106;SDS011;21906;50.812;7.132;2023-02-23T14:32:50;40.80;;;20.47;;
4106;SDS011;21906;50.812;7.132;2023-02-23T14:35:35;46.60;;;23.10;;
4106;SDS011;21906;50.812;7.132;2023-02-23T14:38:09;46.10;;;22.73;;
4106;SDS011;21906;50.812;7.132;2023-02-23T14:40:40;48.00;;;22.63;;
4106;SDS011;21906;50.812;7.132;2023-02-23T14:46:39;50.20;;;23.83;;
4106;SDS011;21906;50.812;7.132;2023-02-23T14:49:19;55.40;;;25.60;;
4106;SDS011;21906;50.812;7.132;2023-02-23T14:51:59;45.10;;;23.13;;
4106;SDS011;21906;50.812;7.132;2023-02-23T14:54:39;47.30;;;23.10;;
4106;SDS011;21906;50.812;7.132;2023-02-23T15:02:55;38.90;;;20.73;;
4106;SDS011;21906;50.812;7.132;2023-02-23T15:05:29;39.73;;;20.97;;
4106;SDS011;21906;50.812;7.132;2023-02-23T15:08:23;43.33;;;19.87;;
4106;SDS011;21906;50.812;7.132;2023-02-23T15:11:13;34.07;;;18.20;;
4106;SDS011;21906;50.812;7.132;2023-02-23T15:13:51;36.10;;;18.10;;
4106;SDS011;21906;50.812;7.132;2023-02-23T15:16:27;34.60;;;17.90;;
4106;SDS011;21906;50.812;7.132;2023-02-23T15:19:18;30.20;;;16.77;;
4106;SDS011;21906;50.812;7.132;2023-02-23T15:21:57;33.27;;;17.37;;
4106;SDS011;21906;50.812;7.132;2023-02-23T15:24:41;30.07;;;16.83;;
4106;SDS011;21906;50.812;7.132;2023-02-23T15:27:35;30.20;;;16.07;;
4106;SDS011;21906;50.812;7.132;2023-02-23T15:32:57;35.20;;;17.93;;
4106;SDS011;21906;50.812;7.132;2023-02-23T15:35:59;28.50;;;16.07;;
4106;SDS011;21906;50.812;7.132;2023-02-23T15:38:40;32.10;;;16.90;;
4106;SDS011;21906;50.812;7.132;2023-02-23T15:41:30;35.90;;;19.43;;
4106;SDS011;21906;50.812;7.132;2023-02-23T15:44:17;32.33;;;17.50;;
4106;SDS011;21906;50.812;7.132;2023-02-23T15:47:03;29.70;;;16.73;;
4106;SDS011;21906;50.812;7.132;2023-02-23T15:49:52;31.70;;;17.50;;
4106;SDS011;21906;50.812;7.132;2023-02-23T15:52:45;30.33;;;16.37;;
4106;SDS011;21906;50.812;7.132;2023-02-23T15:58:18;28.40;;;16.03;;
4106;SDS011;21906;50.812;7.132;2023-02-23T16:01:00;30.60;;;17.20;;
4106;SDS011;21906;50.812;7.132;2023-02-23T16:03:59;33.13;;;16.87;;
4106;SDS011;21906;50.812;7.132;2023-02-23T16:06:33;27.53;;;16.13;;
4106;SDS011;21906;50.812;7.132;2023-02-23T16:09:54;30.23;;;16.50;;
4106;SDS011;21906;50.812;7.132;2023-02-23T16:12:43;29.63;;;16.10;;
4106;SDS011;21906;50.812;7.132;2023-02-23T16:18:05;27.43;;;15.20;;
4106;SDS011;21906;50.812;7.132;2023-02-23T16:20:40;29.63;;;16.30;;
4106;SDS011;21906;50.812;7.132;2023-02-23T16:23:28;30.37;;;16.10;;
4106;SDS011;21906;50.812;7.132;2023-02-23T16:26:04;29.47;;;16.70;;
4106;SDS011;21906;50.812;7.132;2023-02-23T16:28:41;26.50;;;15.73;;
4106;SDS011;21906;50.812;7.132;2023-02-23T16:31:12;30.33;;;16.27;;
4106;SDS011;21906;50.812;7.132;2023-02-23T16:33:50;29.50;;;16.83;;
4106;SDS011;21906;50.812;7.132;2023-02-23T16:36:37;36.77;;;17.57;;
4106;SDS011;21906;50.812;7.132;2023-02-23T16:39:13;28.40;;;16.27;;
4106;SDS011;21906;50.812;7.132;2023-02-23T16:42:00;30.10;;;16.10;;
4106;SDS011;21906;50.812;7.132;2023-02-23T16:44:35;34.90;;;17.23;;
4106;SDS011;21906;50.812;7.132;2023-02-23T16:49:33;33.17;;;17.10;;
4106;SDS011;21906;50.812;7.132;2023-02-23T16:52:21;35.10;;;17.07;;
4106;SDS011;21906;50.812;7.132;2023-02-23T16:54:57;30.40;;;17.03;;
4106;SDS011;21906;50.812;7.132;2023-02-23T16:57:38;34.13;;;17.77;;
4106;SDS011;21906;50.812;7.132;2023-02-23T17:00:07;34.17;;;18.83;;
4106;SDS011;21906;50.812;7.132;2023-02-23T17:02:44;33.03;;;18.13;;
4106;SDS011;21906;50.812;7.132;2023-02-23T17:05:21;31.23;;;17.50;;
4106;SDS011;21906;50.812;7.132;2023-02-23T17:08:09;34.07;;;17.63;;
4106;SDS011;21906;50.812;7.132;2023-02-23T17:10:39;35.63;;;17.57;;
4106;SDS011;21906;50.812;7.132;2023-02-23T17:13:23;34.03;;;17.93;;
4106;SDS011;21906;50.812;7.132;2023-02-23T17:16:04;32.50;;;17.50;;
4106;SDS011;21906;50.812;7.132;2023-02-23T17:18:37;35.60;;;18.37;;
4106;SDS011;21906;50.812;7.132;2023-02-23T17:21:14;37.00;;;17.90;;
4106;SDS011;21906;50.812;7.132;2023-02-23T17:23:48;36.33;;;19.73;;
4106;SDS011;21906;50.812;7.132;2023-02-23T17:26:26;35.03;;;18.33;;
4106;SDS011;21906;50.812;7.132;2023-02-23T17:28:58;37.53;;;19.20;;
4106;SDS011;21906;50.812;7.132;2023-02-23T17:31:28;33.43;;;18.60;;
4106;SDS011;21906;50.812;7.132;2023-02-23T17:34:13;36.93;;;18.50;;
4106;SDS011;21906;50.812;7.132;2023-02-23T17:36:40;36.00;;;18.93;;
4106;SDS011;21906;50.812;7.132;2023-02-23T17:39:17;42.40;;;20.27;;
4106;SDS011;21906;50.812;7.132;2023-02-23T17:42:04;44.57;;;21.07;;
4106;SDS011;21906;50.812;7.132;2023-02-23T17:44:33;40.93;;;20.30;;
4106;SDS011;21906;50.812;7.132;2023-02-23T17:47:05;38.73;;;19.70;;
4106;SDS011;21906;50.812;7.132;2023-02-23T17:49:54;40.23;;;19.43;;
4106;SDS011;21906;50.812;7.132;2023-02-23T17:52:31;37.77;;;20.17;;
4106;SDS011;21906;50.812;7.132;2023-02-23T17:55:31;42.10;;;21.00;;
4106;SDS011;21906;50.812;7.132;2023-02-23T17:58:09;53.50;;;22.20;;
4106;SDS011;21906;50.812;7.132;2023-02-23T18:04:01;40.13;;;19.57;;
4106;SDS011;21906;50.812;7.132;2023-02-23T18:06:34;41.93;;;20.30;;
4106;SDS011;21906;50.812;7.132;2023-02-23T18:09:05;37.60;;;20.20;;
4106;SDS011;21906;50.812;7.132;2023-02-23T18:11:58;43.60;;;20.70;;